Time;durP1;ratioP1;P1;durP2;ratioP2;P2;SDS_P1;SDS_P2;PMS_P1;PMS_P2;Temp;Humidity;BMP_temperature;BMP_pressure;BME280_temperature;BME280_humidity;BME280_pressure;Samples;Min_cycle;Max_cycle;Signal;HPM_P1;HPM_P2
2022/02/05 00:01:18;;;;;;;3.33;1.40;;;4.00;99.90;;;;;;4991438;28;20034;-48
2022/02/05 00:03:49;;;;;;;2.25;1.60;;;3.90;99.90;;;;;;4991114;28;20054;-52
2022/02/05 00:06:19;;;;;;;1.08;0.98;;;3.90;99.90;;;;;;4994018;28;20383;-44
2022/02/05 00:38:49;;;;;;;3.60;1.70;;;3.90;99.90;;;;;;4994479;28;20512;-46
2022/02/05 00:42:05;;;;;;;5.47;1.63;;;3.90;99.90;;;;;;4994312;28;20474;-46
2022/02/05 00:44:02;;;;;;;1.88;1.35;;;3.90;99.90;;;;;;4993372;28;20076;-45
2022/02/05 00:46:33;;;;;;;3.42;1.42;;;3.90;99.90;;;;;;4994332;28;20433;-48
2022/02/05 00:48:59;;;;;;;2.80;1.63;;;3.90;99.90;;;;;;4993664;28;20109;-47
2022/02/05 00:51:31;;;;;;;3.92;1.52;;;3.90;99.90;;;;;;4994078;28;20150;-46
2022/02/05 00:54:18;;;;;;;2.90;1.77;;;3.80;99.90;;;;;;4994084;28;20033;-49
2022/02/05 00:59:14;;;;;;;4.18;1.90;;;3.80;99.90;;;;;;5032480;28;20045;-47
2022/02/05 01:01:41;;;;;;;4.63;1.67;;;3.80;99.90;;;;;;5033935;28;20398;-48
2022/02/05 01:04:07;;;;;;;7.07;2.05;;;3.90;99.90;;;;;;5033388;28;20021;-45
2022/02/05 01:06:33;;;;;;;4.68;2.15;;;3.80;99.90;;;;;;5033437;28;20554;-49
2022/02/05 01:09:01;;;;;;;9.75;2.00;;;3.90;99.90;;;;;;5033589;28;20030;-48
2022/02/05 01:11:26;;;;;;;6.22;1.77;;;3.90;99.90;;;;;;5033556;28;20056;-48
2022/02/05 01:13:55;;;;;;;5.55;2.13;;;3.90;99.90;;;;;;5033010;28;20037;-51
2022/02/05 01:19:04;;;;;;;5.57;1.67;;;3.60;99.90;;;;;;5033270;28;20036;-52
2022/02/05 01:21:41;;;;;;;10.23;1.98;;;3.50;99.90;;;;;;5033291;28;20030;-48
2022/02/05 01:24:10;;;;;;;4.45;2.60;;;3.50;99.90;;;;;;5032812;28;20031;-51
2022/02/05 01:26:45;;;;;;;5.28;1.65;;;3.70;99.90;;;;;;5032095;28;20031;-46
2022/02/05 01:29:21;;;;;;;5.95;1.95;;;3.60;99.90;;;;;;5033106;28;20064;-49
2022/02/05 01:31:52;;;;;;;7.88;2.55;;;3.60;99.90;;;;;;5033083;28;20370;-49
2022/02/05 01:34:32;;;;;;;4.88;1.52;;;3.70;99.90;;;;;;5032831;28;20104;-44
2022/02/05 01:50:52;;;;;;;7.30;2.67;;;3.70;99.90;;;;;;5032350;28;20040;-45
2022/02/05 01:53:47;;;;;;;3.17;1.60;;;3.70;99.90;;;;;;5032582;28;20037;-51
2022/02/05 02:09:41;;;;;;;5.60;2.05;;;3.50;99.90;;;;;;5032222;28;20105;-51
2022/02/05 02:12:12;;;;;;;3.47;1.60;;;3.50;99.90;;;;;;5032381;28;20049;-49
2022/02/05 02:15:00;;;;;;;7.40;1.85;;;3.50;99.90;;;;;;5032073;28;20021;-46
2022/02/05 02:23:02;;;;;;;5.50;1.88;;;3.30;99.90;;;;;;5031913;28;20048;-40
2022/02/05 02:28:45;;;;;;;7.40;2.28;;;3.20;99.90;;;;;;5033164;28;20025;-48
2022/02/05 02:31:03;;;;;;;5.38;2.85;;;3.10;99.90;;;;;;5027553;28;20527;-49
2022/02/05 02:33:33;;;;;;;2.33;2.08;;;3.20;99.90;;;;;;5033401;28;20477;-48
2022/02/05 02:35:59;;;;;;;10.40;1.92;;;3.30;99.90;;;;;;5032382;28;20052;-45
2022/02/05 02:38:34;;;;;;;4.45;2.13;;;3.20;99.90;;;;;;5032075;28;20587;-48
2022/02/05 02:41:05;;;;;;;4.18;1.95;;;3.20;99.90;;;;;;5031791;28;20044;-46
2022/02/05 02:43:33;;;;;;;3.05;1.80;;;3.30;99.90;;;;;;5031633;28;20455;-48
2022/02/05 02:45:59;;;;;;;5.88;2.33;;;3.30;99.90;;;;;;5031947;28;20481;-48
2022/02/05 02:48:24;;;;;;;8.73;2.03;;;3.30;99.90;;;;;;5031149;28;20028;-42
2022/02/05 02:57:09;;;;;;;6.03;1.90;;;3.20;99.90;;;;;;5031591;28;20443;-45
2022/02/05 02:59:48;;;;;;;7.45;2.30;;;3.20;99.90;;;;;;5031484;28;20025;-46
2022/02/05 03:02:16;;;;;;;4.88;2.15;;;3.10;99.90;;;;;;5031596;28;20021;-42
2022/02/05 03:04:42;;;;;;;5.32;2.35;;;3.10;99.90;;;;;;5031281;28;20132;-45
2022/02/05 03:07:07;;;;;;;5.40;2.22;;;3.10;99.90;;;;;;5031358;28;20108;-46
2022/02/05 03:09:33;;;;;;;4.93;1.92;;;3.10;99.90;;;;;;5031328;28;20439;-47
2022/02/05 03:11:58;;;;;;;4.65;1.80;;;3.00;99.90;;;;;;5031878;28;20084;-50
2022/02/05 03:14:24;;;;;;;10.43;2.65;;;3.00;99.90;;;;;;5031121;28;20393;-49
2022/02/05 03:16:52;;;;;;;3.97;2.17;;;3.00;99.90;;;;;;5031291;28;20033;-41
2022/02/05 03:19:18;;;;;;;8.13;2.40;;;2.90;99.90;;;;;;5031283;28;20029;-46
2022/02/05 03:21:44;;;;;;;3.35;2.10;;;3.00;99.90;;;;;;5031388;28;20031;-46
2022/02/05 03:24:11;;;;;;;6.25;3.42;;;3.00;99.90;;;;;;5030950;28;20037;-48
2022/02/05 03:26:38;;;;;;;7.18;2.28;;;3.00;99.90;;;;;;5031182;28;20059;-47
2022/02/05 03:29:06;;;;;;;7.20;2.17;;;2.90;99.90;;;;;;5031460;28;20112;-47
2022/02/05 03:31:33;;;;;;;4.43;2.40;;;2.90;99.90;;;;;;5030972;28;20031;-45
2022/02/05 03:33:59;;;;;;;5.55;2.60;;;2.80;99.90;;;;;;5031849;28;20113;-42
2022/02/05 03:36:24;;;;;;;9.27;2.60;;;2.90;99.90;;;;;;5032002;28;20053;-49
2022/02/05 03:38:50;;;;;;;7.13;2.63;;;2.90;99.90;;;;;;5031225;28;20034;-47
2022/02/05 03:41:16;;;;;;;9.85;2.50;;;3.00;99.90;;;;;;5033806;28;20033;-47
2022/02/05 03:43:41;;;;;;;6.03;2.50;;;3.00;99.90;;;;;;5034766;28;20439;-44
2022/02/05 03:46:07;;;;;;;7.13;2.50;;;3.00;99.90;;;;;;5034853;28;20034;-49
2022/02/05 03:48:33;;;;;;;7.72;2.25;;;3.00;99.90;;;;;;5034234;28;20388;-48
2022/02/05 03:50:58;;;;;;;7.30;2.75;;;3.00;99.90;;;;;;5034794;28;20049;-49
2022/02/05 03:53:24;;;;;;;9.63;3.10;;;3.00;99.90;;;;;;5033277;28;20060;-46
2022/02/05 03:55:49;;;;;;;10.85;3.15;;;3.00;99.90;;;;;;5034833;28;20085;-48
2022/02/05 03:58:15;;;;;;;6.30;2.70;;;3.00;99.90;;;;;;5034529;28;20143;-48
2022/02/05 04:00:40;;;;;;;6.03;2.53;;;3.00;99.90;;;;;;5034657;28;20477;-51
2022/02/05 04:03:07;;;;;;;7.28;2.70;;;3.10;99.90;;;;;;5034356;28;20516;-46
2022/02/05 04:05:32;;;;;;;5.03;3.05;;;3.00;99.90;;;;;;5033364;28;20029;-47
2022/02/05 04:07:58;;;;;;;11.02;3.30;;;3.00;99.90;;;;;;5034620;28;20265;-48
2022/02/05 04:10:28;;;;;;;14.70;2.88;;;3.00;99.90;;;;;;5034460;28;20400;-48
2022/02/05 04:18:23;;;;;;;3.45;2.60;;;3.10;99.90;;;;;;5034393;28;20037;-45
2022/02/05 04:20:49;;;;;;;4.32;2.88;;;3.10;99.90;;;;;;5033125;28;20025;-46
2022/02/05 04:23:15;;;;;;;8.40;3.70;;;3.10;99.90;;;;;;5033963;28;20499;-47
2022/02/05 04:25:41;;;;;;;15.18;3.20;;;3.00;99.90;;;;;;5034298;28;20026;-47
2022/02/05 04:28:07;;;;;;;6.00;2.78;;;3.00;99.90;;;;;;5034080;28;20032;-42
2022/02/05 04:30:33;;;;;;;7.57;4.07;;;3.00;99.90;;;;;;5034174;28;20021;-46
2022/02/05 04:32:58;;;;;;;10.15;3.08;;;3.00;99.90;;;;;;5033976;28;20036;-47
2022/02/05 04:35:24;;;;;;;4.38;2.72;;;2.90;99.90;;;;;;5034075;28;20033;-52
2022/02/05 04:37:52;;;;;;;4.82;2.60;;;2.90;99.90;;;;;;5034151;28;20084;-48
2022/02/05 04:48:26;;;;;;;7.45;3.53;;;3.00;99.90;;;;;;5033990;28;20057;-49
2022/02/05 04:56:23;;;;;;;4.53;3.20;;;2.90;99.90;;;;;;5034021;28;20021;-48
2022/02/05 04:59:24;;;;;;;3.90;2.88;;;3.00;99.90;;;;;;5033494;28;20034;-47
2022/02/05 05:04:37;;;;;;;6.72;2.83;;;2.90;99.90;;;;;;5033363;28;20065;-49
2022/02/05 05:10:19;;;;;;;10.10;3.05;;;2.80;99.90;;;;;;5033341;28;20442;-47
2022/02/05 05:12:56;;;;;;;10.80;3.30;;;2.80;99.90;;;;;;5033362;28;20128;-48
2022/02/05 05:20:31;;;;;;;10.75;4.03;;;2.80;99.90;;;;;;5033514;28;20044;-47
2022/02/05 05:22:58;;;;;;;10.00;4.50;;;2.80;99.90;;;;;;5032994;28;20073;-51
2022/02/05 05:25:23;;;;;;;9.88;3.55;;;2.90;99.90;;;;;;5033286;28;20437;-49
2022/02/05 05:27:49;;;;;;;8.00;3.05;;;2.80;99.90;;;;;;5033182;28;20033;-46
2022/02/05 05:30:15;;;;;;;12.38;4.55;;;2.70;99.90;;;;;;5031867;28;20428;-51
2022/02/05 05:32:40;;;;;;;6.25;2.97;;;2.80;99.90;;;;;;5033872;28;20220;-50
2022/02/05 05:35:07;;;;;;;7.22;3.45;;;2.70;99.90;;;;;;5032842;28;20025;-47
2022/02/05 05:37:33;;;;;;;6.25;3.22;;;2.80;99.90;;;;;;5032869;28;20087;-46
2022/02/05 05:39:59;;;;;;;9.00;4.13;;;2.70;99.90;;;;;;5032732;28;20064;-48
2022/02/05 05:42:30;;;;;;;8.93;2.70;;;2.70;99.90;;;;;;5032760;28;20438;-50
2022/02/05 05:47:57;;;;;;;4.93;2.70;;;2.80;99.90;;;;;;5032733;28;20040;-49
2022/02/05 05:53:08;;;;;;;8.52;3.42;;;2.70;99.90;;;;;;5032527;28;20025;-47
2022/02/05 05:55:34;;;;;;;10.80;2.97;;;2.90;99.90;;;;;;5032581;28;20029;-47
2022/02/05 05:58:00;;;;;;;10.02;3.25;;;2.90;99.90;;;;;;5032600;28;20606;-46
2022/02/05 06:00:26;;;;;;;5.32;3.40;;;3.00;99.90;;;;;;5032381;28;20036;-44
2022/02/05 06:02:52;;;;;;;6.45;3.22;;;3.10;99.90;;;;;;5031515;28;20025;-46
2022/02/05 06:05:17;;;;;;;7.55;3.05;;;3.10;99.90;;;;;;5032333;28;20021;-46
2022/02/05 06:07:43;;;;;;;6.88;3.60;;;3.20;99.90;;;;;;5032431;28;20022;-48
2022/02/05 06:10:09;;;;;;;10.32;4.47;;;3.20;99.90;;;;;;5032238;28;20083;-49
2022/02/05 06:12:34;;;;;;;10.52;3.63;;;3.10;99.90;;;;;;5032158;28;20116;-46
2022/02/05 06:15:03;;;;;;;8.18;3.47;;;3.00;99.90;;;;;;5030870;28;20031;-43
2022/02/05 06:17:29;;;;;;;5.82;3.35;;;3.00;99.90;;;;;;5032142;28;20109;-48
2022/02/05 06:19:55;;;;;;;11.65;4.90;;;2.90;99.90;;;;;;5032066;28;20065;-47
2022/02/05 06:22:20;;;;;;;11.55;3.55;;;2.90;99.90;;;;;;5032780;28;20078;-47
2022/02/05 06:24:46;;;;;;;5.72;4.05;;;2.80;99.90;;;;;;5031874;28;20025;-47
2022/02/05 06:27:11;;;;;;;10.00;3.75;;;2.70;99.90;;;;;;5032496;28;20060;-50
2022/02/05 06:29:37;;;;;;;8.95;3.28;;;2.60;99.90;;;;;;5031031;28;20612;-45
2022/02/05 06:32:03;;;;;;;8.60;3.88;;;2.60;99.90;;;;;;5030659;28;20028;-47
2022/02/05 06:34:29;;;;;;;16.63;5.55;;;2.50;99.90;;;;;;5031495;28;20105;-45
2022/02/05 06:36:55;;;;;;;8.43;5.05;;;2.30;99.90;;;;;;5031802;28;20160;-47
2022/02/05 06:39:21;;;;;;;7.45;4.55;;;2.20;99.90;;;;;;5030501;28;20036;-50
2022/02/05 06:41:47;;;;;;;12.05;4.45;;;2.10;99.90;;;;;;5031594;28;20033;-43
2022/02/05 06:44:13;;;;;;;11.13;5.93;;;2.00;99.90;;;;;;5031604;28;20084;-50
2022/02/05 06:46:40;;;;;;;10.90;4.43;;;2.00;99.90;;;;;;5031733;28;20025;-48
2022/02/05 06:49:06;;;;;;;10.95;4.93;;;2.00;99.90;;;;;;5031283;28;20021;-48
2022/02/05 06:51:32;;;;;;;7.90;4.93;;;1.90;99.90;;;;;;5031585;28;20029;-50
2022/02/05 06:53:58;;;;;;;9.40;4.43;;;2.00;99.90;;;;;;5031370;28;20444;-49
2022/02/05 06:56:24;;;;;;;10.13;4.53;;;2.00;99.90;;;;;;5031635;28;20034;-49
2022/02/05 06:58:49;;;;;;;10.10;5.10;;;2.00;99.90;;;;;;5062650;22;20522;-50
2022/02/05 07:01:15;;;;;;;13.98;5.30;;;2.10;99.90;;;;;;5051375;28;20052;-49
2022/02/05 07:03:40;;;;;;;10.50;4.38;;;2.10;99.90;;;;;;5051162;28;20061;-48
2022/02/05 07:06:06;;;;;;;8.10;4.47;;;2.10;99.90;;;;;;5049929;28;20071;-41
2022/02/05 07:08:32;;;;;;;17.95;5.55;;;2.20;99.90;;;;;;5051832;28;20064;-42
2022/02/05 07:10:58;;;;;;;15.48;5.55;;;2.30;99.90;;;;;;5051231;28;20060;-45
2022/02/05 07:13:23;;;;;;;8.93;4.03;;;2.40;99.90;;;;;;5050019;28;20112;-46
2022/02/05 07:16:00;;;;;;;12.77;5.50;;;2.50;99.90;;;;;;5055506;28;20104;-46
2022/02/05 07:18:35;;;;;;;13.70;4.47;;;2.60;99.90;;;;;;5055461;28;20539;-46
2022/02/05 07:31:26;;;;;;;13.38;4.47;;;2.70;99.90;;;;;;5055127;28;20113;-44
2022/02/05 07:33:52;;;;;;;12.07;4.75;;;2.80;99.90;;;;;;5054814;28;20057;-45
2022/02/05 07:36:18;;;;;;;8.50;4.10;;;2.90;99.90;;;;;;5055669;28;20029;-49
2022/02/05 07:38:44;;;;;;;7.60;4.82;;;2.90;99.90;;;;;;5054781;28;20025;-50
2022/02/05 07:41:10;;;;;;;12.00;4.63;;;2.90;99.90;;;;;;5055349;28;20036;-46
2022/02/05 07:43:36;;;;;;;6.88;4.95;;;2.90;99.90;;;;;;5054390;28;20074;-47
2022/02/05 07:46:06;;;;;;;15.50;5.68;;;2.90;99.90;;;;;;5050783;28;20029;-45
2022/02/05 07:48:33;;;;;;;8.52;5.45;;;2.90;99.90;;;;;;5054335;28;20017;-47
2022/02/05 07:51:02;;;;;;;10.90;5.05;;;2.90;99.90;;;;;;5054636;28;20082;-48
2022/02/05 07:53:29;;;;;;;8.40;4.88;;;2.90;99.90;;;;;;5037101;28;20389;-46
2022/02/05 07:55:55;;;;;;;9.20;4.88;;;2.90;99.90;;;;;;5035042;28;20036;-48
2022/02/05 07:58:20;;;;;;;11.85;5.68;;;2.90;99.90;;;;;;5034749;28;20392;-51
2022/02/05 08:00:47;;;;;;;10.90;5.65;;;2.90;99.90;;;;;;5039681;28;20048;-52
2022/02/05 08:03:13;;;;;;;9.73;5.25;;;2.90;99.90;;;;;;5054301;28;20029;-50
2022/02/05 08:05:39;;;;;;;13.80;5.53;;;2.90;99.90;;;;;;5053401;28;20059;-46
2022/02/05 08:08:08;;;;;;;8.63;4.88;;;3.00;99.90;;;;;;5054632;28;20028;-46
2022/02/05 08:10:37;;;;;;;14.57;5.10;;;3.00;99.90;;;;;;5046467;28;20014;-46
2022/02/05 08:13:03;;;;;;;9.27;5.28;;;3.10;99.90;;;;;;5034122;28;20021;-48
2022/02/05 08:15:30;;;;;;;12.55;5.28;;;3.10;99.90;;;;;;5034465;28;20029;-50
2022/02/05 08:17:56;;;;;;;11.80;4.53;;;3.10;99.90;;;;;;5034995;28;20072;-50
2022/02/05 08:20:22;;;;;;;11.55;4.63;;;3.10;99.90;;;;;;5046615;28;20476;-50
2022/02/05 08:22:48;;;;;;;10.55;5.15;;;3.10;99.90;;;;;;5053755;28;20032;-49
2022/02/05 08:25:14;;;;;;;8.77;4.43;;;3.20;99.90;;;;;;5053961;28;20029;-49
2022/02/05 08:27:41;;;;;;;6.28;4.88;;;3.20;99.90;;;;;;5053765;28;20025;-48
2022/02/05 08:30:10;;;;;;;7.60;4.72;;;3.30;99.90;;;;;;5052694;28;20016;-41
2022/02/05 08:32:37;;;;;;;11.52;4.90;;;3.30;99.90;;;;;;5050507;28;20049;-51
2022/02/05 08:35:05;;;;;;;10.52;5.10;;;3.30;99.90;;;;;;5048691;28;20082;-47
2022/02/05 08:37:35;;;;;;;13.27;5.00;;;3.50;99.90;;;;;;5053887;28;20510;-46
2022/02/05 08:40:00;;;;;;;6.93;4.88;;;3.60;99.90;;;;;;5054149;28;20024;-46
2022/02/05 08:42:26;;;;;;;12.75;5.70;;;3.70;99.90;;;;;;5053966;28;20021;-46
2022/02/05 08:44:51;;;;;;;13.02;4.65;;;3.70;99.90;;;;;;5053612;28;20032;-45
2022/02/05 08:47:17;;;;;;;9.95;4.72;;;3.70;99.90;;;;;;5054343;28;20035;-43
2022/02/05 08:49:43;;;;;;;17.75;5.25;;;3.70;99.90;;;;;;5052558;28;20027;-51
2022/02/05 08:52:11;;;;;;;9.05;4.78;;;3.70;99.90;;;;;;5053858;28;20477;-49
2022/02/05 08:54:38;;;;;;;14.55;4.50;;;3.80;99.90;;;;;;5053701;28;20032;-44
2022/02/05 08:57:05;;;;;;;10.55;4.85;;;3.80;99.90;;;;;;5054084;28;20025;-45
2022/02/05 08:59:42;;;;;;;8.77;4.93;;;4.00;99.90;;;;;;5054444;28;20044;-49
2022/02/05 09:02:16;;;;;;;10.52;3.88;;;4.10;99.90;;;;;;5053754;28;20032;-44
2022/02/05 09:04:58;;;;;;;12.73;4.00;;;4.30;99.90;;;;;;5054259;28;20075;-44
2022/02/05 09:07:23;;;;;;;8.70;3.67;;;4.40;99.90;;;;;;5054031;28;20025;-45
2022/02/05 09:14:59;;;;;;;11.65;4.45;;;4.50;99.90;;;;;;5054367;28;20021;-48
2022/02/05 09:17:25;;;;;;;9.15;4.30;;;4.60;99.90;;;;;;5054455;28;20029;-48
2022/02/05 09:19:51;;;;;;;6.03;2.90;;;4.70;99.90;;;;;;5053619;28;20082;-42
2022/02/05 09:22:16;;;;;;;9.43;3.00;;;5.40;99.90;;;;;;5053620;28;20053;-47
2022/02/05 09:24:42;;;;;;;8.13;3.63;;;6.40;99.90;;;;;;5054228;28;20092;-44
2022/02/05 09:27:11;;;;;;;5.70;2.90;;;7.60;99.90;;;;;;5054089;28;20107;-45
2022/02/05 09:29:47;;;;;;;5.30;2.60;;;8.40;99.90;;;;;;5054537;28;20050;-44
2022/02/05 09:32:12;;;;;;;7.78;2.45;;;9.00;99.90;;;;;;5054794;28;20024;-45
2022/02/05 09:34:38;;;;;;;5.78;2.90;;;9.60;99.90;;;;;;5052902;28;20478;-44
2022/02/05 09:37:04;;;;;;;6.53;3.08;;;9.70;99.90;;;;;;5053056;28;20112;-45
2022/02/05 09:39:29;;;;;;;9.75;3.10;;;9.30;99.90;;;;;;5052849;28;20082;-47
2022/02/05 09:41:55;;;;;;;7.35;3.22;;;8.50;99.90;;;;;;5053421;28;20116;-42
2022/02/05 09:44:27;;;;;;;6.80;3.65;;;7.90;99.90;;;;;;5051663;28;20028;-44
2022/02/05 09:46:53;;;;;;;13.20;4.07;;;7.20;99.90;;;;;;5053694;28;20057;-44
2022/02/05 09:49:18;;;;;;;14.43;4.30;;;6.70;99.90;;;;;;5053656;28;20056;-46
2022/02/05 09:51:54;;;;;;;11.77;4.32;;;6.30;99.90;;;;;;5053818;28;20109;-42
2022/02/05 09:54:20;;;;;;;6.85;3.63;;;6.00;99.90;;;;;;5053892;28;20499;-49
2022/02/05 09:56:47;;;;;;;8.10;3.97;;;6.00;99.90;;;;;;5054316;28;20025;-48
2022/02/05 09:59:13;;;;;;;8.23;3.72;;;5.80;99.90;;;;;;5055204;28;20035;-49
2022/02/05 10:01:39;;;;;;;8.05;3.53;;;5.70;99.90;;;;;;5052597;28;20025;-45
2022/02/05 10:04:07;;;;;;;9.18;3.85;;;5.60;99.90;;;;;;5050967;28;20083;-50
2022/02/05 10:06:39;;;;;;;6.82;3.25;;;5.50;99.90;;;;;;5051974;28;20079;-46
2022/02/05 10:09:12;;;;;;;7.57;3.13;;;5.60;99.90;;;;;;5052835;28;20021;-46
2022/02/05 10:11:53;;;;;;;7.55;3.38;;;5.50;99.90;;;;;;5052780;28;20021;-46
2022/02/05 10:14:23;;;;;;;6.72;3.45;;;5.60;99.90;;;;;;5051848;28;20025;-46
2022/02/05 10:16:54;;;;;;;7.80;3.70;;;5.50;99.90;;;;;;5052117;28;20057;-48
2022/02/05 10:19:21;;;;;;;5.65;3.60;;;5.50;99.90;;;;;;5052279;28;20476;-43
2022/02/05 10:22:00;;;;;;;11.02;3.53;;;5.50;99.90;;;;;;5052496;28;20029;-45
2022/02/05 10:24:27;;;;;;;13.13;3.88;;;5.60;99.90;;;;;;5051051;28;20084;-47
2022/02/05 10:26:52;;;;;;;7.43;3.35;;;5.50;99.90;;;;;;5051741;28;20029;-46
2022/02/05 10:29:20;;;;;;;6.63;3.40;;;5.60;99.90;;;;;;5051877;28;20028;-46
2022/02/05 10:32:10;;;;;;;6.50;2.85;;;5.50;99.90;;;;;;5047597;28;20045;-46
2022/02/05 10:35:37;;;;;;;5.15;2.83;;;5.60;99.90;;;;;;5051794;28;20435;-44
2022/02/05 10:37:45;;;;;;;5.82;3.72;;;5.70;99.90;;;;;;5043849;28;20455;-46
2022/02/05 10:40:14;;;;;;;7.28;3.33;;;5.80;99.90;;;;;;5031844;28;20027;-44
2022/02/05 10:43:03;;;;;;;7.90;2.88;;;5.80;99.90;;;;;;5049726;28;20017;-47
2022/02/05 10:45:49;;;;;;;4.68;3.03;;;5.90;99.90;;;;;;5049591;28;22318;-44
2022/02/05 10:48:20;;;;;;;7.72;3.45;;;6.00;99.90;;;;;;5032239;28;20045;-51
2022/02/05 10:50:47;;;;;;;9.82;2.97;;;6.00;99.90;;;;;;5043183;28;20029;-46
2022/02/05 10:53:48;;;;;;;7.55;3.20;;;6.00;99.90;;;;;;5051567;28;20490;-51
2022/02/05 10:59:00;;;;;;;10.40;3.40;;;6.10;99.90;;;;;;5032373;28;20033;-47
2022/02/05 11:07:09;;;;;;;7.95;2.90;;;6.50;99.90;;;;;;5051773;28;20519;-45
2022/02/05 11:09:37;;;;;;;7.18;3.00;;;6.70;99.90;;;;;;5052038;28;20080;-47
2022/02/05 11:20:22;;;;;;;6.57;3.17;;;7.10;99.90;;;;;;5029377;28;20083;-50
2022/02/05 11:22:50;;;;;;;4.80;1.98;;;7.10;99.90;;;;;;5029484;28;20022;-45
2022/02/05 11:25:17;;;;;;;3.13;2.83;;;7.00;99.90;;;;;;5031272;28;20545;-48
2022/02/05 11:27:48;;;;;;;31.42;16.50;;;7.00;99.90;;;;;;5031377;28;20500;-46
2022/02/05 11:30:25;;;;;;;8.52;3.22;;;7.00;99.90;;;;;;5032113;28;20028;-52
2022/02/05 11:32:51;;;;;;;10.80;2.83;;;6.90;99.90;;;;;;5029455;28;20033;-53
2022/02/05 11:35:30;;;;;;;7.05;2.53;;;6.90;99.90;;;;;;5031426;28;20022;-44
2022/02/05 11:37:58;;;;;;;5.78;2.40;;;6.90;99.90;;;;;;5044179;28;20026;-46
2022/02/05 11:40:43;;;;;;;8.32;2.50;;;7.10;99.90;;;;;;5032253;28;20013;-48
2022/02/05 11:43:31;;;;;;;6.65;2.50;;;7.40;99.90;;;;;;5048743;28;20025;-47
2022/02/05 11:46:11;;;;;;;5.95;2.38;;;7.50;99.90;;;;;;5042152;28;20515;-46
2022/02/05 11:48:44;;;;;;;7.13;2.70;;;7.50;99.90;;;;;;5031255;28;20029;-44
2022/02/05 11:51:17;;;;;;;11.48;3.95;;;7.40;99.90;;;;;;5047906;28;20029;-45
2022/02/05 11:53:55;;;;;;;9.88;2.38;;;7.40;99.90;;;;;;5032024;28;20018;-38
2022/02/05 11:56:50;;;;;;;18.40;2.47;;;7.40;99.90;;;;;;5048692;28;20397;-46
2022/02/05 11:59:22;;;;;;;4.65;2.35;;;7.30;99.90;;;;;;5049563;28;20523;-47
2022/02/05 12:01:48;;;;;;;7.43;2.25;;;7.20;99.90;;;;;;5047661;28;20500;-41
2022/02/05 12:04:16;;;;;;;3.92;2.35;;;7.10;99.90;;;;;;5034945;28;20033;-40
2022/02/05 12:06:52;;;;;;;3.30;2.10;;;7.20;99.90;;;;;;5035911;28;20071;-43
2022/02/05 12:09:37;;;;;;;8.02;2.55;;;7.20;99.90;;;;;;5034873;28;20067;-45
2022/02/05 12:12:25;;;;;;;4.90;2.70;;;7.30;99.90;;;;;;5035270;28;20104;-46
2022/02/05 12:15:13;;;;;;;13.77;2.85;;;7.40;99.90;;;;;;5034710;28;20017;-46
2022/02/05 12:18:08;;;;;;;6.65;2.72;;;7.50;99.90;;;;;;5034604;28;20021;-43
2022/02/05 12:21:02;;;;;;;5.25;2.45;;;7.60;99.90;;;;;;5038619;28;20076;-42
2022/02/05 12:26:30;;;;;;;5.28;2.95;;;7.50;99.90;;;;;;5022150;28;20435;-42
2022/02/05 12:29:01;;;;;;;9.73;2.45;;;7.40;99.90;;;;;;5045101;28;20029;-41
2022/02/05 12:31:33;;;;;;;8.00;2.10;;;7.40;99.90;;;;;;5053472;28;20079;-44
2022/02/05 12:34:01;;;;;;;7.28;3.15;;;7.30;99.90;;;;;;5047639;28;20477;-45
2022/02/05 12:36:29;;;;;;;7.90;3.05;;;7.40;99.90;;;;;;5034278;28;20424;-44
2022/02/05 12:38:57;;;;;;;10.07;2.35;;;7.40;99.90;;;;;;5053959;28;20025;-41
2022/02/05 12:41:24;;;;;;;6.25;2.40;;;7.40;99.90;;;;;;5054951;28;20032;-46
2022/02/05 12:43:50;;;;;;;11.95;2.78;;;7.40;99.90;;;;;;5054969;28;20511;-44
2022/02/05 12:46:18;;;;;;;4.05;2.10;;;7.40;99.90;;;;;;5047318;28;20505;-45
2022/02/05 12:48:47;;;;;;;5.88;2.33;;;7.40;99.90;;;;;;5034079;28;20041;-45
2022/02/05 12:51:13;;;;;;;7.45;2.28;;;7.40;99.90;;;;;;5049069;28;20036;-49
2022/02/05 12:53:40;;;;;;;7.82;2.22;;;7.50;99.90;;;;;;5053234;28;20422;-45
2022/02/05 12:56:15;;;;;;;10.63;2.53;;;7.60;99.90;;;;;;5053188;28;20041;-45
2022/02/05 12:59:03;;;;;;;9.45;2.40;;;7.70;99.90;;;;;;5063045;22;20030;-45
2022/02/05 13:01:33;;;;;;;8.57;2.25;;;7.70;99.90;;;;;;5014406;28;20018;-45
2022/02/05 13:04:10;;;;;;;9.88;3.35;;;7.70;99.90;;;;;;5016237;28;20109;-45
2022/02/05 13:06:36;;;;;;;7.95;3.17;;;7.70;99.90;;;;;;5015638;28;20066;-46
2022/02/05 13:09:02;;;;;;;5.03;2.97;;;7.70;99.90;;;;;;5014890;28;20026;-45
2022/02/05 13:11:30;;;;;;;10.00;3.42;;;7.70;99.90;;;;;;5012753;28;20026;-48
2022/02/05 13:13:56;;;;;;;3.88;2.63;;;7.80;99.90;;;;;;5013572;28;20049;-44
2022/02/05 13:16:23;;;;;;;3.78;3.03;;;7.80;99.90;;;;;;5013962;28;20030;-47
2022/02/05 13:19:25;;;;;;;6.00;2.83;;;7.90;99.90;;;;;;5014570;28;20518;-46
2022/02/05 13:25:32;;;;;;;5.47;2.70;;;7.90;99.90;;;;;;4994634;28;20041;-43
2022/02/05 13:35:55;;;;;;;7.10;3.05;;;7.70;99.90;;;;;;5014265;28;20064;-44
2022/02/05 13:38:21;;;;;;;3.53;2.15;;;7.80;99.90;;;;;;5014069;28;20018;-49
2022/02/05 13:40:50;;;;;;;3.90;2.50;;;7.80;99.90;;;;;;5013644;28;20024;-44
2022/02/05 13:43:19;;;;;;;8.27;3.80;;;7.90;99.90;;;;;;5013508;28;20028;-44
2022/02/05 13:45:45;;;;;;;7.80;4.93;;;7.90;99.90;;;;;;5014529;28;20033;-45
2022/02/05 13:48:23;;;;;;;9.98;4.05;;;7.90;99.90;;;;;;5013926;28;20022;-44
2022/02/05 13:50:49;;;;;;;9.55;5.18;;;7.80;99.90;;;;;;5018734;28;20018;-44
2022/02/05 13:53:15;;;;;;;9.80;5.20;;;7.70;99.90;;;;;;5026232;28;20033;-44
2022/02/05 13:55:42;;;;;;;6.75;4.53;;;7.60;99.90;;;;;;5027759;28;20092;-44
2022/02/05 13:58:14;;;;;;;7.70;3.85;;;7.50;99.90;;;;;;5027959;28;20037;-44
2022/02/05 14:00:41;;;;;;;11.23;4.18;;;7.40;99.90;;;;;;5018014;28;20026;-49
2022/02/05 14:03:08;;;;;;;10.98;4.25;;;7.30;99.90;;;;;;5013395;28;20030;-46
2022/02/05 14:05:53;;;;;;;8.95;5.82;;;7.20;99.90;;;;;;5013005;28;20018;-42
2022/02/05 14:08:26;;;;;;;9.45;4.30;;;7.10;99.90;;;;;;5013235;28;20026;-47
2022/02/05 14:10:59;;;;;;;7.32;4.15;;;7.00;99.90;;;;;;5012364;28;20061;-46
2022/02/05 14:13:25;;;;;;;10.32;3.75;;;6.80;99.90;;;;;;5012659;28;20022;-49
2022/02/05 14:15:55;;;;;;;10.18;4.32;;;6.70;99.90;;;;;;5012875;28;20046;-50
2022/02/05 14:18:21;;;;;;;9.10;3.55;;;6.60;99.90;;;;;;5012904;28;20469;-47
2022/02/05 14:21:01;;;;;;;5.78;3.03;;;6.60;99.90;;;;;;5012334;28;20129;-42
2022/02/05 14:23:29;;;;;;;10.82;3.10;;;6.60;99.90;;;;;;5011673;28;20029;-46
2022/02/05 14:26:11;;;;;;;9.98;3.25;;;6.60;99.90;;;;;;5012365;28;20108;-48
2022/02/05 14:28:49;;;;;;;7.55;3.78;;;6.60;99.90;;;;;;5012339;28;20444;-46
2022/02/05 14:34:07;;;;;;;7.15;3.25;;;6.60;99.90;;;;;;5012931;28;20026;-46
2022/02/05 14:42:09;;;;;;;6.97;2.72;;;6.60;99.90;;;;;;5015798;28;20441;-46
2022/02/05 14:44:35;;;;;;;2.92;2.40;;;6.70;99.90;;;;;;5013535;28;20482;-41
2022/02/05 14:47:01;;;;;;;4.85;2.22;;;6.70;99.90;;;;;;5013495;28;20125;-46
2022/02/05 14:49:27;;;;;;;4.57;2.72;;;6.60;99.90;;;;;;5011757;28;20026;-46
2022/02/05 14:51:53;;;;;;;9.32;3.45;;;6.60;99.90;;;;;;5012849;28;20021;-49
2022/02/05 14:54:18;;;;;;;3.85;2.38;;;6.70;99.90;;;;;;5012341;28;20101;-44
2022/02/05 14:56:44;;;;;;;6.68;3.00;;;6.70;99.90;;;;;;5011892;28;20596;-46
2022/02/05 14:59:10;;;;;;;11.02;2.58;;;6.70;99.90;;;;;;5012094;28;20409;-43
2022/02/05 15:01:36;;;;;;;6.07;2.63;;;6.80;99.90;;;;;;5012745;28;20033;-40
2022/02/05 15:04:03;;;;;;;5.90;2.47;;;6.80;99.90;;;;;;5012464;28;20034;-47
2022/02/05 15:06:31;;;;;;;4.90;2.80;;;6.80;99.90;;;;;;5012494;28;20026;-44
2022/02/05 15:08:59;;;;;;;6.03;2.90;;;6.90;99.90;;;;;;5013001;28;20027;-49
2022/02/05 15:11:26;;;;;;;7.90;4.45;;;6.80;99.90;;;;;;5011651;28;20029;-46
2022/02/05 15:13:52;;;;;;;5.07;3.30;;;6.90;99.90;;;;;;5011730;28;20034;-48
2022/02/05 15:16:21;;;;;;;7.25;3.22;;;6.80;99.90;;;;;;5012175;28;20030;-47
2022/02/05 15:18:54;;;;;;;9.30;3.22;;;6.80;99.90;;;;;;5011980;28;20026;-46
2022/02/05 15:21:21;;;;;;;6.60;3.08;;;6.80;99.90;;;;;;5012071;28;20028;-45
2022/02/05 15:23:46;;;;;;;4.35;3.35;;;6.70;99.90;;;;;;5011390;28;20026;-46
2022/02/05 15:26:12;;;;;;;6.57;3.17;;;6.60;99.90;;;;;;5011985;28;20442;-47
2022/02/05 15:28:38;;;;;;;3.80;3.10;;;6.60;99.90;;;;;;5011638;28;20041;-43
2022/02/05 15:31:04;;;;;;;8.80;3.17;;;6.50;99.90;;;;;;5010649;28;20021;-40
2022/02/05 15:33:31;;;;;;;10.60;3.92;;;6.50;99.90;;;;;;5011430;28;20029;-40
2022/02/05 15:36:01;;;;;;;7.88;4.32;;;6.50;99.90;;;;;;5013589;28;20029;-46
2022/02/05 15:38:38;;;;;;;7.80;3.28;;;6.40;99.90;;;;;;5015739;28;20477;-46
2022/02/05 15:43:53;;;;;;;6.88;3.55;;;6.40;99.90;;;;;;5001012;28;20038;-41
2022/02/05 15:46:20;;;;;;;10.27;4.47;;;6.40;99.90;;;;;;4999390;28;20026;-44
2022/02/05 15:48:46;;;;;;;6.55;3.22;;;6.40;99.90;;;;;;5014417;28;20029;-47
2022/02/05 15:51:12;;;;;;;7.57;4.30;;;6.40;99.90;;;;;;5006045;28;20037;-46
2022/02/05 15:53:47;;;;;;;4.60;3.65;;;6.30;99.90;;;;;;5005878;28;20105;-47
2022/02/05 15:56:25;;;;;;;8.32;4.03;;;6.20;99.90;;;;;;4995723;28;20509;-45
2022/02/05 15:58:52;;;;;;;5.68;2.85;;;6.20;99.90;;;;;;5013241;28;20052;-41